createdAt,value
2024-02-24T00:13:33.856Z,2.80
2024-02-24T00:26:33.910Z,2.40
2024-02-24T00:39:33.895Z,2.50
2024-02-24T00:52:33.887Z,2.30
2024-02-24T01:05:33.928Z,2.10
2024-02-24T01:18:33.930Z,1.90
2024-02-24T01:31:33.992Z,1.80
2024-02-24T01:44:33.976Z,1.60
2024-02-24T01:57:33.903Z,1.50
2024-02-24T02:10:33.892Z,1.20
2024-02-24T02:23:33.976Z,1.10
2024-02-24T02:36:33.924Z,1.05
2024-02-24T02:49:33.975Z,1.00
2024-02-24T03:02:33.968Z,1.10
2024-02-24T03:15:33.947Z,1.20
2024-02-24T03:28:33.941Z,0.90
2024-02-24T03:41:33.994Z,1.20
2024-02-24T03:54:33.961Z,1.25
2024-02-24T04:07:33.932Z,1.10
2024-02-24T04:20:33.999Z,1.10
2024-02-24T04:33:34.016Z,1.20
2024-02-24T04:46:33.987Z,1.10
2024-02-24T04:59:34.040Z,0.90
2024-02-24T05:12:34.070Z,1.10
2024-02-24T05:25:34.074Z,1.00
2024-02-24T05:38:34.070Z,1.10
2024-02-24T05:51:34.091Z,1.30
2024-02-24T06:06:34.106Z,1.80
2024-02-24T06:20:34.238Z,1.90
2024-02-24T06:34:34.093Z,2.00
2024-02-24T06:49:34.179Z,2.00
2024-02-24T07:03:34.541Z,1.80
2024-02-24T07:17:34.183Z,3.30
2024-02-24T07:31:34.187Z,6.20
2024-02-24T07:44:34.146Z,6.10
2024-02-24T07:58:34.111Z,5.50
2024-02-24T08:12:34.231Z,5.70
2024-02-24T08:26:34.207Z,6.00
2024-02-24T08:40:34.137Z,5.60
2024-02-24T08:54:34.125Z,5.40
2024-02-24T09:08:34.167Z,5.20
2024-02-24T09:22:34.147Z,2.90
2024-02-24T09:36:34.159Z,2.50
2024-02-24T09:50:34.200Z,1.90
2024-02-24T10:04:34.168Z,1.80
2024-02-24T10:18:34.254Z,1.70
2024-02-24T10:32:34.196Z,1.60
2024-02-24T10:46:34.185Z,1.70
2024-02-24T11:00:34.202Z,2.10
2024-02-24T11:14:34.184Z,1.80
2024-02-24T11:28:34.203Z,1.80
2024-02-24T11:42:34.180Z,1.60
2024-02-24T11:56:34.294Z,2.00
2024-02-24T12:10:34.205Z,1.70
2024-02-24T12:24:34.209Z,1.80
2024-02-24T12:38:35.965Z,1.80
2024-02-24T12:52:34.225Z,1.40
2024-02-24T13:06:34.315Z,1.45
2024-02-24T13:20:34.309Z,1.45
2024-02-24T13:34:34.268Z,1.50
2024-02-24T13:49:34.443Z,3.50
2024-02-24T14:03:34.271Z,2.60
2024-02-24T14:17:34.351Z,2.20
2024-02-24T14:31:34.377Z,2.10
2024-02-24T14:45:34.301Z,2.20
2024-02-24T14:59:34.350Z,1.60
2024-02-24T15:13:35.992Z,1.70
2024-02-24T15:27:34.312Z,1.75
2024-02-24T15:42:34.330Z,5.70
2024-02-24T15:56:34.306Z,6.20
2024-02-24T16:10:34.322Z,5.70
2024-02-24T16:24:34.335Z,5.00
2024-02-24T16:38:34.437Z,6.30
2024-02-24T16:52:34.353Z,6.20
2024-02-24T17:06:34.374Z,3.50
2024-02-24T17:20:34.411Z,3.20
2024-02-24T17:33:34.486Z,4.40
2024-02-24T17:46:36.341Z,5.10
2024-02-24T17:59:34.550Z,5.90
2024-02-24T18:12:34.553Z,6.10
2024-02-24T18:25:34.518Z,6.30
2024-02-24T18:38:34.793Z,6.40
2024-02-24T18:51:34.560Z,6.10
2024-02-24T19:04:34.620Z,5.85
2024-02-24T19:17:34.669Z,6.00
2024-02-24T19:30:34.549Z,5.40
2024-02-24T19:43:34.555Z,6.60
2024-02-24T19:56:34.587Z,6.10
2024-02-24T20:09:34.573Z,5.00
2024-02-24T20:23:34.600Z,4.30
2024-02-24T20:36:34.555Z,4.30
2024-02-24T20:49:34.607Z,3.90
2024-02-24T21:02:34.673Z,4.10
2024-02-24T21:16:34.611Z,4.40
2024-02-24T21:29:34.625Z,4.70
2024-02-24T21:42:34.612Z,5.00
2024-02-24T21:55:34.623Z,4.60
2024-02-24T22:08:36.377Z,4.95
2024-02-24T22:21:34.598Z,4.50
2024-02-24T22:34:34.740Z,4.10
2024-02-24T22:48:34.743Z,3.40
2024-02-24T23:01:34.747Z,3.20
2024-02-24T23:14:34.694Z,3.10
2024-02-24T23:27:34.692Z,2.70
2024-02-24T23:40:34.771Z,2.40
2024-02-24T23:53:34.763Z,2.30
